Time;durP1;ratioP1;P1;durP2;ratioP2;P2;SDS_P1;SDS_P2;PMS_P1;PMS_P2;Temp;Humidity;BMP_temperature;BMP_pressure;BME280_temperature;BME280_humidity;BME280_pressure;Samples;Min_cycle;Max_cycle;Signal;HPM_P1;HPM_P2
2021/11/29 00:01:07;;;;;;;11.70;5.90;;;;;;;-0.12;100.00;99707.31;5046687;28;20051;-86
2021/11/29 00:03:33;;;;;;;12.57;5.93;;;;;;;-0.08;100.00;99704.34;5065486;28;20084;-87
2021/11/29 00:06:01;;;;;;;10.70;6.45;;;;;;;-0.08;100.00;99706.97;5067358;28;20072;-84
2021/11/29 00:08:29;;;;;;;7.50;5.17;;;;;;;-0.18;100.00;99703.38;5051683;28;20131;-85
2021/11/29 00:10:56;;;;;;;9.98;5.65;;;;;;;-0.11;100.00;99709.03;5053634;28;20307;-87
2021/11/29 00:13:24;;;;;;;9.57;5.68;;;;;;;-0.12;100.00;99709.97;5049662;28;20116;-88
2021/11/29 00:15:51;;;;;;;7.60;5.07;;;;;;;-0.16;100.00;99714.66;5065294;28;20089;-86
2021/11/29 00:18:17;;;;;;;12.18;5.90;;;;;;;-0.11;100.00;99712.50;5056951;28;20365;-84
2021/11/29 00:20:44;;;;;;;9.48;4.80;;;;;;;-0.12;100.00;99716.06;5063712;28;20067;-85
2021/11/29 00:23:13;;;;;;;6.93;4.28;;;;;;;-0.12;100.00;99717.88;5064091;28;20048;-85
2021/11/29 00:25:39;;;;;;;;;;;;;;;-0.10;100.00;99715.97;5053314;28;20507;-85
2021/11/29 00:28:05;;;;;;;6.97;4.32;;;;;;;-0.17;100.00;99714.75;5049950;28;19944;-86
2021/11/29 00:30:30;;;;;;;16.35;5.32;;;;;;;-0.18;100.00;99713.09;5034105;28;20040;-86
2021/11/29 00:32:56;;;;;;;10.23;4.70;;;;;;;-0.12;100.00;99717.88;5071658;28;20094;-84
2021/11/29 00:35:21;;;;;;;10.30;4.72;;;;;;;-0.17;100.00;99723.53;5054897;28;20059;-83
2021/11/29 00:37:47;;;;;;;8.85;4.25;;;;;;;-0.16;100.00;99724.38;5037619;28;20060;-84
2021/11/29 00:40:13;;;;;;;9.13;4.38;;;;;;;-0.14;100.00;99711.91;5071925;28;20040;-85
2021/11/29 00:42:39;;;;;;;8.25;4.55;;;;;;;-0.07;100.00;99715.72;5037022;28;20500;-83
2021/11/29 00:45:06;;;;;;;8.73;3.67;;;;;;;-0.10;100.00;99722.06;5022810;28;20041;-87
2021/11/29 00:47:32;;;;;;;9.15;4.50;;;;;;;-0.10;100.00;99713.31;5036871;28;20044;-84
2021/11/29 00:49:57;;;;;;;9.82;3.33;;;;;;;-0.08;100.00;99717.53;5051554;28;20130;-85
2021/11/29 00:52:23;;;;;;;6.50;4.18;;;;;;;-0.02;100.00;99706.47;5047933;28;20045;-84
2021/11/29 00:54:48;;;;;;;7.45;3.80;;;;;;;-0.02;100.00;99719.66;5053329;28;20045;-85
2021/11/29 00:57:13;;;;;;;8.35;3.88;;;;;;;-0.05;100.00;99719.91;5054531;28;20055;-87
2021/11/29 00:59:39;;;;;;;4.13;2.58;;;;;;;-0.12;100.00;99726.63;5036689;28;20631;-85
2021/11/29 01:02:05;;;;;;;9.02;3.65;;;;;;;-0.08;100.00;99727.25;5054074;28;20051;-85
2021/11/29 01:04:31;;;;;;;9.52;3.72;;;;;;;-0.05;100.00;99725.19;5054579;28;20382;-86
2021/11/29 01:06:56;;;;;;;7.53;3.30;;;;;;;-0.10;100.00;99723.88;5071329;28;20044;-85
2021/11/29 01:09:21;;;;;;;8.68;3.95;;;;;;;-0.11;100.00;99723.03;5053688;28;20044;-86
2021/11/29 01:11:47;;;;;;;7.70;3.70;;;;;;;-0.10;100.00;99727.34;5071100;28;20118;-86
2021/11/29 01:14:12;;;;;;;9.30;3.78;;;;;;;-0.14;100.00;99720.66;5068955;28;20036;-84
2021/11/29 01:16:38;;;;;;;8.68;4.10;;;;;;;-0.07;100.00;99731.53;5041241;28;20072;-84
2021/11/29 01:19:03;;;;;;;7.22;3.50;;;;;;;-0.07;100.00;99721.00;5054034;28;20124;-85
2021/11/29 01:21:29;;;;;;;5.78;3.50;;;;;;;-0.08;100.00;99714.88;5070220;28;20037;-85
2021/11/29 01:23:54;;;;;;;6.85;3.50;;;;;;;-0.15;100.00;99716.31;5052793;28;20056;-87
2021/11/29 01:26:19;;;;;;;7.75;3.90;;;;;;;-0.13;100.00;99727.59;5053896;28;20462;-86
2021/11/29 01:28:45;;;;;;;6.35;3.58;;;;;;;-0.12;100.00;99725.78;5071051;28;20033;-86
2021/11/29 01:31:10;;;;;;;12.65;3.80;;;;;;;-0.12;100.00;99723.16;5037125;28;20593;-86
2021/11/29 01:33:36;;;;;;;8.75;3.85;;;;;;;-0.09;100.00;99730.81;5070616;28;20047;-86
2021/11/29 01:36:02;;;;;;;6.57;4.05;;;;;;;-0.08;100.00;99728.06;5053992;28;20048;-86
2021/11/29 01:38:27;;;;;;;8.68;3.47;;;;;;;-0.04;100.00;99732.13;5048924;28;20068;-86
2021/11/29 01:40:53;;;;;;;7.50;4.03;;;;;;;-0.07;100.00;99735.00;5032865;28;20747;-87
2021/11/29 01:43:19;;;;;;;7.38;4.25;;;;;;;-0.07;100.00;99737.66;5041081;28;20493;-86
2021/11/29 01:45:48;;;;;;;8.18;3.50;;;;;;;-0.06;100.00;99727.94;5070474;28;20068;-85
2021/11/29 01:48:14;;;;;;;9.27;4.30;;;;;;;-0.03;100.00;99732.97;5053677;28;20500;-85
2021/11/29 01:50:44;;;;;;;6.40;3.50;;;;;;;-0.04;100.00;99737.41;5069707;28;20401;-84
2021/11/29 01:53:10;;;;;;;11.30;3.65;;;;;;;-0.03;100.00;99727.69;5035258;28;20037;-85
2021/11/29 01:55:39;;;;;;;11.55;4.03;;;;;;;0.04;100.00;99739.44;5017085;28;20043;-85
2021/11/29 01:58:05;;;;;;;;;;;;;;;0.03;100.00;99737.78;5033923;28;20052;-86
2021/11/29 02:00:33;;;;;;;6.32;4.07;;;;;;;-0.09;100.00;99739.56;5050612;28;20281;-84
2021/11/29 02:02:58;;;;;;;12.98;4.05;;;;;;;-0.09;100.00;99738.72;5049946;28;20037;-84
2021/11/29 02:05:25;;;;;;;8.70;4.07;;;;;;;-0.07;100.00;99742.91;5033605;28;20099;-85
2021/11/29 02:07:51;;;;;;;9.10;4.68;;;;;;;0.02;100.00;99751.91;5031994;28;20048;-86
2021/11/29 02:10:18;;;;;;;8.27;3.50;;;;;;;0.01;100.00;99750.22;5033047;28;20037;-86
2021/11/29 02:12:45;;;;;;;8.55;3.92;;;;;;;0.01;100.00;99746.75;5015555;28;20544;-85
2021/11/29 02:15:12;;;;;;;10.40;3.88;;;;;;;0.09;100.00;99754.91;5053303;28;20045;-85
2021/11/29 02:17:37;;;;;;;10.05;3.85;;;;;;;0.10;100.00;99760.03;5050121;28;20041;-85
2021/11/29 02:20:04;;;;;;;11.35;5.00;;;;;;;0.12;100.00;99763.41;5033218;28;20171;-84
2021/11/29 02:22:30;;;;;;;9.98;4.30;;;;;;;0.14;100.00;99764.09;5062718;28;20040;-85
2021/11/29 02:24:55;;;;;;;10.85;4.85;;;;;;;0.13;100.00;99765.06;5068628;28;20040;-86
2021/11/29 02:27:20;;;;;;;9.85;4.13;;;;;;;0.11;100.00;99769.63;5058906;28;20123;-84
2021/11/29 02:29:46;;;;;;;7.90;4.18;;;;;;;0.12;100.00;99768.69;5069412;28;20040;-85
2021/11/29 02:32:13;;;;;;;7.35;4.20;;;;;;;0.11;100.00;99774.91;5068929;28;20489;-85
2021/11/29 02:34:41;;;;;;;7.70;3.05;;;;;;;0.05;100.00;99762.22;5009584;28;20562;-86
2021/11/29 02:37:10;;;;;;;7.82;4.40;;;;;;;0.06;100.00;99765.69;5045176;28;20060;-85
2021/11/29 02:39:37;;;;;;;8.52;4.20;;;;;;;0.10;100.00;99767.13;5045286;28;20127;-85
2021/11/29 02:42:07;;;;;;;7.97;4.70;;;;;;;0.12;100.00;99757.31;5048368;28;20040;-86
2021/11/29 02:44:37;;;;;;;9.88;3.85;;;;;;;0.11;100.00;99774.06;5044146;28;20127;-84
2021/11/29 02:47:03;;;;;;;6.88;3.67;;;;;;;0.04;100.00;99776.38;5048464;28;20497;-84
2021/11/29 02:49:31;;;;;;;12.27;5.05;;;;;;;0.06;100.00;99774.44;5065134;28;20056;-86
2021/11/29 02:52:02;;;;;;;8.65;4.15;;;;;;;0.03;100.00;99758.88;5045896;28;20175;-84
2021/11/29 02:54:31;;;;;;;6.88;4.43;;;;;;;0.02;100.00;99762.44;5046131;28;20068;-84
2021/11/29 02:57:00;;;;;;;9.60;4.57;;;;;;;-0.06;100.00;99767.50;5040795;28;20123;-85
2021/11/29 02:59:34;;;;;;;9.57;4.50;;;;;;;-0.01;100.00;99774.09;5057595;28;20044;-86
2021/11/29 03:02:06;;;;;;;6.35;3.40;;;;;;;-0.07;100.00;99768.47;5017503;28;20123;-84
2021/11/29 03:04:35;;;;;;;8.07;4.57;;;;;;;-0.05;100.00;99774.47;5066047;28;20044;-86
2021/11/29 03:07:14;;;;;;;5.72;3.47;;;;;;;-0.09;100.00;99775.66;5053088;28;20048;-85
2021/11/29 03:09:42;;;;;;;7.30;3.35;;;;;;;-0.06;100.00;99775.41;5063930;28;20480;-84
2021/11/29 03:12:09;;;;;;;7.63;4.13;;;;;;;-0.07;100.00;99785.13;5050759;28;20068;-85
2021/11/29 03:14:37;;;;;;;8.13;4.00;;;;;;;-0.03;100.00;99780.44;5061156;28;20508;-85
2021/11/29 03:17:11;;;;;;;16.30;4.13;;;;;;;0.01;100.00;99786.34;5061908;28;20058;-86
2021/11/29 03:19:39;;;;;;;6.50;3.55;;;;;;;-0.03;100.00;99788.34;5060812;28;20048;-84
2021/11/29 03:22:07;;;;;;;7.47;4.10;;;;;;;0.01;100.00;99794.25;5045926;28;20044;-86
2021/11/29 03:24:33;;;;;;;9.32;3.85;;;;;;;-0.09;100.00;99787.03;5058784;28;20044;-85
2021/11/29 03:26:59;;;;;;;6.80;3.75;;;;;;;-0.01;100.00;99783.81;5057562;28;20045;-84
2021/11/29 03:29:27;;;;;;;9.52;3.42;;;;;;;0.02;100.00;99786.19;5046625;28;20036;-85
2021/11/29 03:32:01;;;;;;;8.50;3.28;;;;;;;0.01;100.00;99787.16;5059399;28;20602;-84
2021/11/29 03:34:29;;;;;;;7.00;2.88;;;;;;;-0.06;100.00;99791.22;5040741;28;20141;-85
2021/11/29 03:36:56;;;;;;;5.55;2.25;;;;;;;-0.06;100.00;99791.22;5045593;28;20040;-86
2021/11/29 03:39:24;;;;;;;7.78;2.70;;;;;;;-0.01;100.00;99791.72;5074376;28;20124;-85
2021/11/29 03:41:55;;;;;;;10.30;2.63;;;;;;;-0.02;100.00;99782.97;5058845;28;20043;-84
2021/11/29 03:44:22;;;;;;;7.22;2.85;;;;;;;0.05;100.00;99796.50;5042400;28;20075;-83
2021/11/29 03:46:53;;;;;;;7.30;2.28;;;;;;;0.10;100.00;99796.97;5058848;28;20040;-83
2021/11/29 03:49:25;;;;;;;9.43;2.67;;;;;;;0.14;100.00;99803.69;5056290;28;20552;-85
2021/11/29 03:51:52;;;;;;;6.15;2.40;;;;;;;0.18;100.00;99793.75;5047323;28;20089;-86
2021/11/29 03:54:19;;;;;;;5.05;2.15;;;;;;;0.20;100.00;99808.50;5023239;28;20048;-85
2021/11/29 03:56:45;;;;;;;5.40;2.10;;;;;;;0.25;100.00;99805.47;5043510;28;20048;-84
2021/11/29 03:59:10;;;;;;;7.03;2.70;;;;;;;0.30;100.00;99808.59;5041351;28;20045;-85
2021/11/29 04:01:44;;;;;;;8.52;2.15;;;;;;;0.27;100.00;99803.56;5044420;28;20147;-84
2021/11/29 04:04:12;;;;;;;5.63;2.10;;;;;;;0.34;100.00;99809.19;5050691;28;20047;-86
2021/11/29 04:06:39;;;;;;;8.88;2.38;;;;;;;0.30;100.00;99805.94;5062562;28;20048;-83
2021/11/29 04:09:06;;;;;;;8.70;2.53;;;;;;;0.29;100.00;99806.06;5055193;28;20544;-85
2021/11/29 04:11:33;;;;;;;3.95;2.20;;;;;;;0.29;100.00;99806.06;5068011;28;20044;-84
2021/11/29 04:13:58;;;;;;;4.00;1.58;;;;;;;0.25;100.00;99804.63;5048592;28;20041;-86
2021/11/29 04:16:25;;;;;;;5.13;1.95;;;;;;;0.27;100.00;99808.00;5034973;28;20047;-86
2021/11/29 04:18:52;;;;;;;4.20;1.73;;;;;;;0.26;100.00;99795.75;5032129;28;20048;-86
2021/11/29 04:21:17;;;;;;;5.53;1.90;;;;;;;0.25;100.00;99804.63;5066422;28;20047;-85
2021/11/29 04:23:58;;;;;;;7.13;1.92;;;;;;;0.32;100.00;99800.56;5051947;28;20036;-84
2021/11/29 04:26:23;;;;;;;9.77;1.70;;;;;;;0.29;100.00;99804.28;5045593;28;20133;-86
2021/11/29 04:28:54;;;;;;;6.32;1.85;;;;;;;0.29;100.00;99819.25;5067742;28;20072;-84
2021/11/29 04:31:19;;;;;;;6.28;1.95;;;;;;;0.34;100.00;99809.19;5051892;28;20048;-85
2021/11/29 04:33:51;;;;;;;6.25;2.22;;;;;;;0.37;100.00;99811.56;5047067;28;20785;-85
2021/11/29 04:36:21;;;;;;;6.78;1.95;;;;;;;0.38;100.00;99829.09;5059766;28;20587;-86
2021/11/29 04:38:48;;;;;;;8.75;2.83;;;;;;;0.37;100.00;99825.59;5062919;28;20051;-87
2021/11/29 04:41:13;;;;;;;7.07;2.05;;;;;;;0.43;100.00;99837.47;5033438;28;20047;-86
2021/11/29 04:43:43;;;;;;;5.18;1.48;;;;;;;0.36;100.00;99828.38;5034116;28;20048;-87
2021/11/29 04:46:08;;;;;;;4.47;1.80;;;;;;;0.38;100.00;99826.47;5068418;28;20094;-84
2021/11/29 04:48:34;;;;;;;6.13;2.10;;;;;;;0.43;100.00;99834.81;5043010;28;20048;-84
2021/11/29 04:51:01;;;;;;;5.32;2.15;;;;;;;0.47;100.00;99838.09;5029961;28;20916;-86
2021/11/29 04:53:26;;;;;;;8.23;2.22;;;;;;;0.45;100.00;99830.28;5049132;28;20563;-87
2021/11/29 04:55:58;;;;;;;5.10;2.20;;;;;;;0.47;100.00;99838.09;5011769;28;20041;-84
2021/11/29 04:58:24;;;;;;;5.30;2.80;;;;;;;0.50;100.00;99836.03;5066330;28;20578;-85
2021/11/29 05:00:51;;;;;;;5.05;1.83;;;;;;;0.56;100.00;99839.97;5052633;28;20112;-84
2021/11/29 05:03:17;;;;;;;3.78;1.48;;;;;;;0.55;100.00;99833.03;5050759;28;20408;-85
2021/11/29 05:05:42;;;;;;;3.33;1.42;;;;;;;0.52;100.00;99836.75;5051979;28;20036;-85
2021/11/29 05:08:10;;;;;;;7.22;1.65;;;;;;;0.54;100.00;99839.25;5055672;28;20623;-87
2021/11/29 05:10:37;;;;;;;6.43;1.90;;;;;;;0.56;100.00;99851.38;5048597;28;20045;-84
2021/11/29 05:13:10;;;;;;;4.20;1.70;;;;;;;0.61;100.00;99851.00;5059413;28;20059;-86
2021/11/29 05:15:37;;;;;;;5.95;1.80;;;;;;;0.57;100.00;99842.47;5060205;28;20051;-85
2021/11/29 05:18:03;;;;;;;6.72;2.33;;;;;;;0.58;100.00;99841.53;5060778;28;20052;-84
2021/11/29 05:20:28;;;;;;;5.40;1.88;;;;;;;0.62;100.00;99842.97;5043346;28;20059;-86
2021/11/29 05:22:55;;;;;;;4.85;1.38;;;;;;;0.58;100.00;99838.06;5076980;28;20037;-85
2021/11/29 05:25:27;;;;;;;5.47;1.45;;;;;;;0.58;100.00;99846.81;5061736;28;20044;-84
2021/11/29 05:27:53;;;;;;;5.20;1.70;;;;;;;0.61;100.00;99851.84;5048051;28;20063;-85
2021/11/29 05:30:18;;;;;;;7.03;2.83;;;;;;;0.58;100.00;99848.63;5030644;28;20122;-84
2021/11/29 05:32:44;;;;;;;7.25;2.85;;;;;;;0.61;100.00;99853.66;5064359;28;20131;-84
2021/11/29 05:35:10;;;;;;;6.82;3.17;;;;;;;0.65;100.00;99860.34;5052411;28;20048;-84
2021/11/29 05:37:35;;;;;;;15.95;6.85;;;;;;;0.62;100.00;99860.59;5052781;28;20049;-86
2021/11/29 05:40:01;;;;;;;8.68;2.15;;;;;;;0.61;100.00;99858.94;5048561;28;20719;-86
2021/11/29 05:42:35;;;;;;;3.92;1.70;;;;;;;0.61;100.00;99854.50;5047105;28;20040;-84
2021/11/29 05:45:01;;;;;;;4.13;1.60;;;;;;;0.65;100.00;99860.34;5049127;28;20044;-84
2021/11/29 05:47:26;;;;;;;7.63;1.80;;;;;;;0.65;100.00;99869.09;5054182;28;20048;-86
2021/11/29 05:49:59;;;;;;;4.40;1.60;;;;;;;0.66;100.00;99870.81;5014540;28;20115;-84
2021/11/29 05:52:25;;;;;;;6.90;1.77;;;;;;;0.67;100.00;99856.63;5066735;28;20120;-83
2021/11/29 05:54:56;;;;;;;5.22;1.65;;;;;;;0.67;100.00;99859.28;5032896;28;20159;-84
2021/11/29 05:57:22;;;;;;;4.80;1.42;;;;;;;0.67;100.00;99877.75;5065832;28;20041;-85
2021/11/29 05:59:47;;;;;;;5.55;1.73;;;;;;;0.70;100.00;99876.69;5028012;28;20041;-83
2021/11/29 06:02:12;;;;;;;8.13;1.63;;;;;;;0.70;100.00;99876.69;5062896;28;20521;-83
2021/11/29 06:04:39;;;;;;;7.47;1.90;;;;;;;0.66;100.00;99868.16;5060652;28;20044;-83
2021/11/29 06:07:04;;;;;;;5.13;1.80;;;;;;;0.66;100.00;99872.59;5047176;28;20099;-86
2021/11/29 06:09:29;;;;;;;5.28;2.10;;;;;;;0.67;100.00;99875.13;5043801;28;20528;-83
2021/11/29 06:11:55;;;;;;;4.45;1.73;;;;;;;0.70;100.00;99886.41;5057983;28;20093;-86
2021/11/29 06:14:20;;;;;;;4.85;2.20;;;;;;;0.73;100.00;99889.63;5049440;28;20047;-83
2021/11/29 06:16:47;;;;;;;8.20;2.00;;;;;;;0.72;100.00;99882.69;5039594;28;20581;-83
2021/11/29 06:19:12;;;;;;;8.23;3.25;;;;;;;0.73;100.00;99891.44;5045957;28;20426;-86
2021/11/29 06:21:38;;;;;;;7.47;3.75;;;;;;;0.77;100.00;99888.41;5039824;28;20163;-84
2021/11/29 06:24:04;;;;;;;5.65;2.40;;;;;;;0.71;100.00;99891.56;5039737;28;20398;-83
2021/11/29 06:26:29;;;;;;;6.10;2.15;;;;;;;0.69;100.00;99896.09;5043930;28;20094;-82
2021/11/29 06:28:55;;;;;;;6.35;2.20;;;;;;;0.72;100.00;99895.88;5044177;28;20443;-85
2021/11/29 06:31:20;;;;;;;6.07;1.85;;;;;;;0.75;100.00;99895.63;5045775;28;20044;-83
2021/11/29 06:33:46;;;;;;;8.13;2.83;;;;;;;0.77;100.00;99906.06;5058306;28;20064;-86
2021/11/29 06:36:12;;;;;;;9.85;5.82;;;;;;;0.80;100.00;99901.38;5024977;28;20040;-85
2021/11/29 06:38:38;;;;;;;9.77;4.97;;;;;;;0.80;100.00;99904.00;5047711;28;20037;-83
2021/11/29 06:41:04;;;;;;;11.50;5.07;;;;;;;0.81;100.00;99907.50;5053601;28;20060;-85
2021/11/29 06:43:29;;;;;;;8.85;4.60;;;;;;;0.75;100.00;99907.97;5057328;28;20052;-83
2021/11/29 06:45:55;;;;;;;10.63;5.13;;;;;;;0.76;100.00;99920.25;5061149;28;20578;-81
2021/11/29 06:48:21;;;;;;;10.90;4.93;;;;;;;0.68;100.00;99912.91;5025990;28;20186;-85
2021/11/29 06:50:48;;;;;;;11.40;4.72;;;;;;;0.65;100.00;99914.00;5042856;28;20040;-84
2021/11/29 06:53:15;;;;;;;5.97;4.80;;;;;;;0.68;100.00;99918.19;5057555;28;20500;-83
2021/11/29 06:55:41;;;;;;;8.05;5.03;;;;;;;0.66;100.00;99926.25;5060976;28;20040;-84
2021/11/29 06:58:07;;;;;;;11.07;5.50;;;;;;;0.63;100.00;99929.16;5041115;28;20488;-83
2021/11/29 07:00:33;;;;;;;10.80;5.90;;;;;;;0.60;100.00;99932.00;5059555;28;20045;-83
2021/11/29 07:02:59;;;;;;;8.20;5.75;;;;;;;0.62;100.00;99938.00;5055457;28;20545;-84
2021/11/29 07:05:26;;;;;;;11.00;5.95;;;;;;;0.64;100.00;99938.75;5044540;28;20045;-82
2021/11/29 07:07:53;;;;;;;9.52;6.45;;;;;;;0.70;100.00;99947.16;5025231;28;20131;-83
2021/11/29 07:10:20;;;;;;;8.93;4.75;;;;;;;0.68;100.00;99948.09;5061683;28;20098;-81
2021/11/29 07:12:47;;;;;;;10.70;5.55;;;;;;;0.70;100.00;99952.44;5039812;28;20401;-83
2021/11/29 07:15:16;;;;;;;8.70;5.75;;;;;;;0.74;100.00;99956.50;5054176;28;20048;-83
2021/11/29 07:17:41;;;;;;;10.15;5.20;;;;;;;0.74;100.00;99964.41;5037835;28;20044;-83
2021/11/29 07:20:08;;;;;;;13.25;7.88;;;;;;;0.73;100.00;99968.03;5057772;28;20052;-83
2021/11/29 07:22:35;;;;;;;9.02;5.65;;;;;;;0.81;100.00;99978.81;5043069;28;20033;-83
2021/11/29 07:25:04;;;;;;;8.13;5.28;;;;;;;0.80;100.00;99979.78;5060711;28;20388;-81
2021/11/29 07:27:31;;;;;;;10.90;6.22;;;;;;;0.78;100.00;99966.69;5059374;28;20356;-83
2021/11/29 07:29:58;;;;;;;15.27;6.20;;;;;;;0.75;100.00;99972.22;5054833;28;20046;-84
2021/11/29 07:32:25;;;;;;;9.98;5.93;;;;;;;0.79;100.00;99972.81;5045028;28;20045;-84
2021/11/29 07:34:51;;;;;;;8.70;4.30;;;;;;;0.73;100.00;99971.50;5026222;28;20131;-83
2021/11/29 07:37:19;;;;;;;9.98;4.50;;;;;;;0.76;100.00;99981.81;5029861;28;20123;-83
2021/11/29 07:39:46;;;;;;;11.10;4.10;;;;;;;0.76;100.00;99989.75;5057477;28;20051;-86
2021/11/29 07:42:15;;;;;;;10.80;5.68;;;;;;;0.82;100.00;99991.06;5055804;28;20045;-86
2021/11/29 07:44:42;;;;;;;8.65;5.22;;;;;;;0.81;100.00;99994.69;5048889;28;20119;-82
2021/11/29 07:47:08;;;;;;;10.25;5.55;;;;;;;0.84;100.00;100002.34;5064057;28;20044;-85
2021/11/29 07:49:34;;;;;;;9.63;4.75;;;;;;;0.83;100.00;100005.94;5047152;28;20049;-83
2021/11/29 07:52:00;;;;;;;12.10;6.07;;;;;;;0.82;100.00;100009.56;5060690;28;20037;-83
2021/11/29 07:54:27;;;;;;;9.73;4.80;;;;;;;0.81;100.00;100014.00;5047435;28;20036;-85
2021/11/29 07:56:53;;;;;;;14.65;5.25;;;;;;;0.78;100.00;100019.53;5046414;28;20039;-83
2021/11/29 07:59:19;;;;;;;8.02;4.00;;;;;;;0.78;100.00;100024.81;5040619;28;20058;-84
2021/11/29 08:01:44;;;;;;;9.65;4.63;;;;;;;0.82;100.00;100030.69;5046036;28;20123;-84
2021/11/29 08:04:10;;;;;;;11.35;5.45;;;;;;;0.87;100.00;100033.81;5051183;28;20059;-84
2021/11/29 08:06:36;;;;;;;10.07;4.63;;;;;;;0.87;100.00;100047.84;5019259;28;20037;-84
2021/11/29 08:09:02;;;;;;;11.55;5.03;;;;;;;0.89;100.00;100042.44;5059795;28;20064;-84
2021/11/29 08:11:28;;;;;;;9.95;5.00;;;;;;;0.90;100.00;100052.91;5030532;28;20047;-84
2021/11/29 08:13:54;;;;;;;9.73;4.82;;;;;;;0.91;100.00;100053.72;5036859;28;20519;-84
2021/11/29 08:16:19;;;;;;;7.13;4.35;;;;;;;0.90;100.00;100057.34;5045287;28;20061;-84
2021/11/29 08:18:45;;;;;;;8.50;4.88;;;;;;;0.93;100.00;100051.81;5064168;28;20051;-84
2021/11/29 08:21:10;;;;;;;8.00;4.13;;;;;;;0.90;100.00;100052.06;5047835;28;20059;-84
2021/11/29 08:23:36;;;;;;;12.27;5.85;;;;;;;0.92;100.00;100042.19;5057346;28;20045;-85
2021/11/29 08:26:01;;;;;;;14.00;5.93;;;;;;;0.95;100.00;100060.47;5058958;28;20501;-85
2021/11/29 08:28:27;;;;;;;10.68;5.28;;;;;;;0.96;100.00;100063.94;5063760;28;20048;-84
2021/11/29 08:30:53;;;;;;;10.07;4.32;;;;;;;0.94;100.00;100060.56;5037494;28;20040;-84
2021/11/29 08:33:18;;;;;;;11.88;6.57;;;;;;;1.00;100.00;100068.03;5042894;28;20032;-84
2021/11/29 08:35:46;;;;;;;11.23;6.13;;;;;;;1.01;100.00;100072.38;5044460;28;20489;-84
2021/11/29 08:38:12;;;;;;;11.10;5.43;;;;;;;1.04;100.00;100070.31;5039736;28;20052;-84
2021/11/29 08:40:38;;;;;;;9.15;5.50;;;;;;;1.02;100.00;100074.88;5032021;28;20432;-84
2021/11/29 08:43:07;;;;;;;15.05;5.03;;;;;;;1.03;100.00;100081.81;5044353;28;20040;-85
2021/11/29 08:45:33;;;;;;;11.55;5.20;;;;;;;1.09;100.00;100080.50;5048032;28;20040;-83
2021/11/29 08:48:01;;;;;;;14.52;6.60;;;;;;;1.10;100.00;100083.03;5047859;28;20036;-85
2021/11/29 08:50:28;;;;;;;13.23;6.35;;;;;;;1.15;100.00;100090.59;5044317;28;20049;-85
2021/11/29 08:52:56;;;;;;;15.55;8.88;;;;;;;1.17;100.00;100093.94;5044789;28;20390;-84
2021/11/29 08:55:21;;;;;;;13.27;6.93;;;;;;;1.21;100.00;100095.41;5049044;28;20123;-84
2021/11/29 08:57:47;;;;;;;21.13;8.95;;;;;;;1.21;100.00;100098.06;5046950;28;20052;-84
2021/11/29 09:00:16;;;;;;;12.82;6.45;;;;;;;1.22;100.00;100090.97;5060932;28;20044;-84
2021/11/29 09:02:42;;;;;;;12.38;6.03;;;;;;;1.26;100.00;100110.88;5028214;28;20090;-85
2021/11/29 09:05:10;;;;;;;10.82;5.70;;;;;;;1.30;100.00;100109.72;5059333;28;20420;-85
2021/11/29 09:07:36;;;;;;;10.32;5.35;;;;;;;1.35;100.00;100120.72;5060329;28;20037;-85
2021/11/29 09:10:04;;;;;;;12.90;6.20;;;;;;;1.38;100.00;100122.28;5062705;28;20051;-84
2021/11/29 09:12:31;;;;;;;10.87;5.33;;;;;;;1.39;100.00;100119.53;5045972;28;20036;-85
2021/11/29 09:14:56;;;;;;;14.77;5.32;;;;;;;1.39;100.00;100135.41;5064625;28;20062;-84
2021/11/29 09:17:23;;;;;;;12.05;4.65;;;;;;;1.42;100.00;100139.63;5060168;28;20045;-84
2021/11/29 09:19:54;;;;;;;9.35;4.95;;;;;;;1.44;100.00;100138.53;5026107;28;20538;-85
2021/11/29 09:22:20;;;;;;;10.32;5.53;;;;;;;1.43;100.00;100144.75;5038136;28;20049;-85
2021/11/29 09:24:45;;;;;;;9.07;5.57;;;;;;;1.46;100.00;100149.81;5029019;28;20097;-84
2021/11/29 09:27:10;;;;;;;13.85;6.63;;;;;;;1.46;100.00;100147.16;5045927;28;20044;-85
2021/11/29 09:29:37;;;;;;;14.48;5.45;;;;;;;1.46;100.00;100157.75;5044415;28;20093;-84
2021/11/29 09:32:04;;;;;;;10.63;5.57;;;;;;;1.49;100.00;100161.94;5058991;28;20103;-85
2021/11/29 09:34:31;;;;;;;9.88;5.22;;;;;;;1.49;100.00;100162.78;5045568;28;20104;-85
2021/11/29 09:36:58;;;;;;;9.10;4.75;;;;;;;1.51;100.00;100167.97;5061974;28;20037;-85
2021/11/29 09:39:24;;;;;;;10.45;5.05;;;;;;;1.54;100.00;100163.28;5030460;28;20041;-85
2021/11/29 09:41:50;;;;;;;11.15;5.35;;;;;;;1.56;100.00;100177.22;5045722;28;20569;-84
2021/11/29 09:44:16;;;;;;;8.75;5.30;;;;;;;1.60;100.00;100180.47;5053111;28;20046;-85
2021/11/29 09:46:47;;;;;;;12.68;5.10;;;;;;;1.60;100.00;100175.16;5039234;28;20055;-85
2021/11/29 09:49:16;;;;;;;12.25;5.80;;;;;;;1.64;100.00;100186.34;5056891;28;20461;-85
2021/11/29 09:51:44;;;;;;;10.65;4.50;;;;;;;1.66;100.00;100181.78;5031212;28;20452;-85
2021/11/29 09:54:09;;;;;;;11.48;5.55;;;;;;;1.72;100.00;100183.94;5056275;28;20045;-85
2021/11/29 09:56:36;;;;;;;13.77;6.07;;;;;;;1.80;100.00;100187.63;5065136;28;20488;-85
2021/11/29 09:59:04;;;;;;;13.73;5.50;;;;;;;1.89;100.00;100182.59;5044250;28;20068;-85
2021/11/29 10:01:30;;;;;;;10.68;5.97;;;;;;;1.92;100.00;100187.63;5059342;28;20071;-85
2021/11/29 10:03:56;;;;;;;12.88;5.45;;;;;;;1.93;100.00;100190.16;5041280;28;20040;-85
2021/11/29 10:06:22;;;;;;;10.98;5.78;;;;;;;1.98;100.00;100197.72;5036773;28;20536;-85
2021/11/29 10:08:48;;;;;;;11.68;5.30;;;;;;;2.05;100.00;100192.78;5030174;28;20040;-85
2021/11/29 10:11:17;;;;;;;9.40;5.72;;;;;;;2.14;100.00;100194.69;5057039;28;20082;-85
2021/11/29 10:14:04;;;;;;;13.02;5.72;;;;;;;2.18;100.00;100201.41;5060119;28;20615;-85
2021/11/29 10:16:41;;;;;;;8.95;4.78;;;;;;;2.20;100.00;100200.31;5043295;28;20086;-85
2021/11/29 10:19:31;;;;;;;10.23;5.40;;;;;;;2.26;100.00;100205.09;5038264;28;20033;-85
2021/11/29 10:22:19;;;;;;;12.30;5.80;;;;;;;2.31;100.00;100215.31;5037306;28;20044;-85
2021/11/29 10:24:47;;;;;;;10.95;5.10;;;;;;;2.34;100.00;100220.38;5054974;28;20118;-85
2021/11/29 10:27:14;;;;;;;9.03;4.93;;;;;;;2.39;100.00;100215.53;5042881;28;20490;-85
2021/11/29 10:30:03;;;;;;;10.32;5.47;;;;;;;2.39;100.00;100223.50;5045094;28;20036;-85
2021/11/29 10:32:33;;;;;;;10.77;5.75;;;;;;;2.43;100.00;100227.56;5026993;28;21035;-85
2021/11/29 10:35:00;;;;;;;10.02;6.07;;;;;;;2.48;100.00;100230.69;5040051;28;20500;-85
2021/11/29 10:37:34;;;;;;;10.50;5.60;;;;;;;2.44;100.00;100231.88;5042043;28;20052;-85
2021/11/29 10:40:00;;;;;;;11.10;6.07;;;;;;;2.43;100.00;100238.16;5029445;28;20047;-85
2021/11/29 10:42:27;;;;;;;10.57;5.88;;;;;;;2.46;100.00;100237.91;5060969;28;20049;-85
2021/11/29 10:44:54;;;;;;;10.43;5.82;;;;;;;2.50;100.00;100238.47;5058952;28;20048;-85
2021/11/29 10:47:22;;;;;;;10.25;6.10;;;;;;;2.56;100.00;100243.31;5062994;28;20416;-85
2021/11/29 10:49:54;;;;;;;10.07;6.30;;;;;;;2.56;100.00;100247.72;5044525;28;20044;-85
2021/11/29 10:52:24;;;;;;;8.98;5.63;;;;;;;2.54;100.00;100247.03;5056879;28;20057;-85
2021/11/29 10:54:53;;;;;;;9.75;5.45;;;;;;;2.56;100.00;100251.25;5054464;28;20033;-85
2021/11/29 10:57:21;;;;;;;10.90;6.65;;;;;;;2.64;100.00;100255.91;5058969;28;20825;-85
2021/11/29 10:59:49;;;;;;;10.70;6.22;;;;;;;2.68;100.00;100252.03;5054487;28;20048;-85
2021/11/29 11:02:19;;;;;;;11.98;5.90;;;;;;;2.70;100.00;100260.69;5057387;28;20826;-85
2021/11/29 11:05:01;;;;;;;11.45;6.90;;;;;;;2.78;100.00;100258.25;5062539;28;20165;-85
2021/11/29 11:07:32;;;;;;;11.25;7.38;;;;;;;2.74;100.00;100266.59;5030149;28;20467;-85
2021/11/29 11:09:59;;;;;;;9.85;6.45;;;;;;;2.74;100.00;100250.69;5042120;28;20124;-85
2021/11/29 11:12:28;;;;;;;11.23;6.40;;;;;;;2.84;100.00;100256.91;5042020;28;20143;-85
2021/11/29 11:14:57;;;;;;;9.82;6.72;;;;;;;3.04;100.00;100258.72;5041962;28;20064;-85
2021/11/29 11:17:31;;;;;;;10.55;6.07;;;;;;;3.11;100.00;100259.91;5042614;28;20124;-85
2021/11/29 11:20:09;;;;;;;9.25;5.95;;;;;;;3.08;100.00;100265.47;5043855;28;20037;-85
2021/11/29 11:22:45;;;;;;;8.75;5.82;;;;;;;3.04;100.00;100268.50;5056148;28;20048;-85
2021/11/29 11:25:18;;;;;;;7.75;5.10;;;;;;;3.03;100.00;100266.81;5042280;28;20436;-85
2021/11/29 11:27:56;;;;;;;10.10;5.78;;;;;;;3.15;100.00;100269.25;5057512;28;20427;-85